Time;durP1;ratioP1;P1;durP2;ratioP2;P2;SDS_P1;SDS_P2;PMS_P1;PMS_P2;Temp;Humidity;BMP_temperature;BMP_pressure;BME280_temperature;BME280_humidity;BME280_pressure;Samples;Min_cycle;Max_cycle;Signal;HPM_P1;HPM_P2
2022/12/10 00:01:12;;;;;;;48.53;24.55;;;1.70;99.90;;;;;;5008436;28;20207;-81
2022/12/10 00:03:38;;;;;;;48.20;24.83;;;1.80;99.90;;;;;;5021618;28;20061;-82
2022/12/10 00:06:07;;;;;;;54.45;27.73;;;1.80;99.90;;;;;;5009557;28;20094;-83
2022/12/10 00:09:11;;;;;;;53.38;27.95;;;1.80;99.90;;;;;;5007015;28;20846;-83
2022/12/10 00:11:37;;;;;;;45.60;25.08;;;1.80;99.90;;;;;;4997253;28;20042;-83
2022/12/10 00:14:03;;;;;;;57.05;29.52;;;1.70;99.90;;;;;;4996133;28;20092;-83
2022/12/10 00:16:33;;;;;;;58.50;28.50;;;1.70;99.90;;;;;;4995036;28;20034;-81
2022/12/10 00:19:07;;;;;;;53.35;27.17;;;1.70;99.90;;;;;;5009475;28;20107;-82
2022/12/10 00:21:35;;;;;;;56.75;28.65;;;1.60;99.90;;;;;;5014966;28;20032;-79
2022/12/10 00:24:02;;;;;;;60.85;30.58;;;1.60;99.90;;;;;;5014389;28;20026;-81
2022/12/10 00:26:34;;;;;;;60.72;28.75;;;1.60;99.90;;;;;;5008289;28;20480;-82
2022/12/10 00:29:01;;;;;;;55.45;27.70;;;1.60;99.90;;;;;;4995523;28;20030;-82
2022/12/10 00:31:33;;;;;;;60.33;28.63;;;1.60;99.90;;;;;;4994964;28;20479;-83
2022/12/10 00:34:01;;;;;;;56.00;27.40;;;1.60;99.90;;;;;;4986156;28;20031;-82
2022/12/10 00:36:32;;;;;;;56.00;28.38;;;1.60;99.90;;;;;;4997274;28;20038;-82
2022/12/10 00:38:59;;;;;;;57.67;27.20;;;1.60;99.90;;;;;;5006226;28;20022;-82
2022/12/10 00:41:24;;;;;;;54.63;25.92;;;1.60;99.90;;;;;;5015163;28;20038;-82
2022/12/10 00:43:50;;;;;;;56.15;27.25;;;1.60;99.90;;;;;;4992620;28;20031;-83
2022/12/10 00:46:18;;;;;;;52.90;25.88;;;1.60;99.90;;;;;;5009806;28;20046;-82
2022/12/10 00:48:44;;;;;;;57.13;28.35;;;1.60;99.90;;;;;;5009329;28;20078;-82
2022/12/10 00:51:13;;;;;;;56.03;28.63;;;1.60;99.90;;;;;;5010278;28;20030;-83
2022/12/10 00:53:40;;;;;;;58.33;27.40;;;1.60;99.90;;;;;;5011287;28;20023;-82
2022/12/10 00:56:09;;;;;;;60.78;28.88;;;1.60;99.90;;;;;;5006245;28;20487;-82
2022/12/10 00:58:35;;;;;;;56.67;27.67;;;1.60;99.90;;;;;;4994572;28;20034;-82
2022/12/10 01:01:20;;;;;;;61.97;30.42;;;1.60;99.90;;;;;;5004375;28;20032;-82
2022/12/10 01:03:48;;;;;;;69.32;31.73;;;1.60;99.90;;;;;;5018415;28;20036;-81
2022/12/10 01:06:25;;;;;;;57.33;27.90;;;1.60;99.90;;;;;;5014838;28;20014;-82
2022/12/10 01:08:53;;;;;;;56.05;27.90;;;1.60;99.90;;;;;;5022094;28;20021;-84
2022/12/10 01:11:20;;;;;;;58.47;27.63;;;1.60;99.90;;;;;;5027064;28;20104;-81
2022/12/10 01:13:48;;;;;;;57.67;27.65;;;1.50;99.90;;;;;;5030604;28;20029;-81
2022/12/10 01:16:16;;;;;;;55.60;27.40;;;1.50;99.90;;;;;;5014843;28;20050;-81
2022/12/10 01:18:42;;;;;;;54.92;27.98;;;1.50;99.90;;;;;;5015870;28;20014;-81
2022/12/10 01:21:11;;;;;;;60.70;28.88;;;1.50;99.90;;;;;;5015268;28;20042;-81
2022/12/10 01:23:39;;;;;;;54.00;26.02;;;1.50;99.90;;;;;;5018549;28;20010;-82
2022/12/10 01:26:08;;;;;;;62.00;28.58;;;1.50;99.90;;;;;;5035220;28;20032;-81
2022/12/10 01:28:36;;;;;;;57.33;26.85;;;1.40;99.90;;;;;;5034375;28;20038;-80
2022/12/10 01:31:08;;;;;;;63.40;29.42;;;1.40;99.90;;;;;;5023840;28;20026;-80
2022/12/10 01:33:35;;;;;;;64.55;29.27;;;1.40;99.90;;;;;;5015663;28;20029;-81
2022/12/10 01:36:13;;;;;;;65.05;27.30;;;1.40;99.90;;;;;;5014161;28;20018;-81
2022/12/10 01:38:40;;;;;;;59.92;29.75;;;1.40;99.90;;;;;;5017311;28;20057;-81
2022/12/10 01:41:07;;;;;;;63.03;28.52;;;1.30;99.90;;;;;;5020462;28;20026;-80
2022/12/10 01:43:48;;;;;;;57.08;27.75;;;1.30;99.90;;;;;;5021806;28;20018;-80
2022/12/10 01:46:47;;;;;;;65.13;29.70;;;1.30;99.90;;;;;;5020121;28;20196;-82
2022/12/10 01:49:58;;;;;;;62.42;28.92;;;1.20;99.90;;;;;;5018436;28;20022;-81
2022/12/10 01:52:45;;;;;;;60.70;27.92;;;1.20;99.90;;;;;;5008581;28;20030;-81
2022/12/10 01:59:18;;;;;;;58.63;29.65;;;1.20;99.90;;;;;;5019245;28;20052;-83
2022/12/10 02:01:58;;;;;;;59.70;29.45;;;1.20;99.90;;;;;;5004988;28;20503;-82
2022/12/10 02:05:01;;;;;;;60.35;28.48;;;1.20;99.90;;;;;;5004723;28;20022;-82
2022/12/10 02:08:11;;;;;;;53.60;26.65;;;1.20;99.90;;;;;;5009139;28;20026;-82
2022/12/10 02:10:43;;;;;;;60.95;29.70;;;1.20;99.90;;;;;;4998094;28;20030;-82
2022/12/10 02:13:21;;;;;;;61.78;28.90;;;1.20;99.90;;;;;;5001310;28;20113;-83
2022/12/10 02:16:09;;;;;;;57.28;28.25;;;1.20;99.90;;;;;;5001587;28;20034;-83
2022/12/10 02:18:45;;;;;;;54.35;28.27;;;1.20;99.90;;;;;;5001073;28;20048;-82
2022/12/10 02:21:38;;;;;;;54.85;27.95;;;1.20;99.90;;;;;;5013931;28;20022;-83
2022/12/10 02:24:45;;;;;;;;;;;1.20;99.90;;;;;;5006484;28;20050;-82
2022/12/10 02:27:35;;;;;;;52.60;25.67;;;1.30;99.90;;;;;;5023958;28;19909;-81
2022/12/10 02:30:23;;;;;;;57.13;27.20;;;1.30;99.90;;;;;;5023049;28;20019;-81
2022/12/10 02:32:53;;;;;;;51.85;26.80;;;1.30;99.90;;;;;;5028838;28;20095;-82
2022/12/10 02:35:25;;;;;;;52.55;28.27;;;1.30;99.90;;;;;;5019006;28;20116;-81
2022/12/10 02:38:06;;;;;;;55.03;27.02;;;1.20;99.90;;;;;;5036518;28;20038;-80
2022/12/10 02:40:34;;;;;;;55.10;27.15;;;1.20;99.90;;;;;;5018191;28;20032;-82
2022/12/10 02:43:13;;;;;;;58.53;28.48;;;1.20;99.90;;;;;;5011871;28;20032;-82
2022/12/10 02:45:41;;;;;;;51.65;26.45;;;1.20;99.90;;;;;;5003852;28;20402;-83
2022/12/10 02:51:41;;;;;;;53.17;26.83;;;1.20;99.90;;;;;;5005422;28;20045;-83
2022/12/10 02:54:55;;;;;;;51.20;25.35;;;1.10;99.90;;;;;;5004778;28;20047;-83
2022/12/10 02:57:33;;;;;;;59.67;26.77;;;1.10;99.90;;;;;;4978333;28;20054;-82
2022/12/10 03:00:16;;;;;;;48.90;25.33;;;1.10;99.90;;;;;;4995301;28;20027;-82
2022/12/10 03:03:22;;;;;;;50.47;26.15;;;1.10;99.90;;;;;;4996750;28;20108;-82
2022/12/10 03:06:55;;;;;;;50.10;25.60;;;1.10;99.90;;;;;;4994171;28;20048;-81
2022/12/10 03:09:46;;;;;;;48.60;23.88;;;1.10;99.90;;;;;;4971540;28;20420;-82
2022/12/10 03:12:33;;;;;;;54.22;26.65;;;1.20;99.90;;;;;;4982592;28;20058;-82
2022/12/10 03:15:06;;;;;;;51.83;25.65;;;1.20;99.90;;;;;;4999321;28;20035;-82
2022/12/10 03:17:34;;;;;;;49.97;25.70;;;1.20;99.90;;;;;;4997725;28;20045;-83
2022/12/10 03:24:58;;;;;;;51.58;25.58;;;1.20;99.90;;;;;;4960480;28;20074;-81
2022/12/10 03:27:45;;;;;;;50.92;25.30;;;1.10;99.90;;;;;;4968928;28;20396;-83
2022/12/10 03:30:29;;;;;;;;;;;;;;;;;;;;;
2022/12/10 03:39:42;;;;;;;47.83;24.50;;;1.20;99.90;;;;;;5006806;28;20037;-83
2022/12/10 03:42:10;;;;;;;54.97;25.42;;;1.20;99.90;;;;;;4996693;28;20027;-82
2022/12/10 03:44:41;;;;;;;48.30;24.13;;;1.20;99.90;;;;;;4997566;28;20426;-81
2022/12/10 03:51:00;;;;;;;58.72;27.38;;;1.20;99.90;;;;;;4997628;28;20062;-83
2022/12/10 03:53:44;;;;;;;53.75;26.15;;;1.20;99.90;;;;;;4973507;28;20033;-81
2022/12/10 03:57:12;;;;;;;56.88;24.80;;;1.10;99.90;;;;;;5018783;28;20038;-82
2022/12/10 03:59:58;;;;;;;53.38;24.48;;;1.20;99.90;;;;;;5003706;28;20018;-83
2022/12/10 04:02:29;;;;;;;54.85;25.63;;;1.20;99.90;;;;;;5012784;28;20018;-81
2022/12/10 04:05:04;;;;;;;53.45;25.45;;;1.20;99.90;;;;;;5012921;28;20122;-82
2022/12/10 04:07:33;;;;;;;55.67;26.58;;;1.20;99.90;;;;;;5013012;28;20061;-82
2022/12/10 04:09:59;;;;;;;49.42;24.70;;;1.20;99.90;;;;;;4997459;28;20023;-81
2022/12/10 04:12:28;;;;;;;56.53;25.58;;;1.20;99.90;;;;;;4997538;28;20080;-82
2022/12/10 04:17:40;;;;;;;52.88;24.83;;;1.30;99.90;;;;;;5015292;28;20111;-81
2022/12/10 04:26:51;;;;;;;54.95;25.42;;;1.30;99.90;;;;;;5013844;28;20034;-83
2022/12/10 04:28:34;;;;;;;50.10;23.20;;;1.30;99.90;;;;;;4996391;28;20107;-82
2022/12/10 04:31:00;;;;;;;50.20;24.50;;;1.20;99.90;;;;;;4996185;28;20026;-83
2022/12/10 04:33:52;;;;;;;48.38;23.08;;;1.20;99.90;;;;;;5010363;28;20044;-82
2022/12/10 04:36:41;;;;;;;42.75;21.45;;;1.20;99.90;;;;;;5000625;28;20362;-83
2022/12/10 04:39:30;;;;;;;46.83;22.13;;;1.20;99.90;;;;;;5002808;28;20099;-83
2022/12/10 04:41:56;;;;;;;42.10;21.20;;;1.30;99.90;;;;;;4997920;28;20037;-84
2022/12/10 04:44:27;;;;;;;45.92;22.98;;;1.30;99.90;;;;;;5003597;28;20367;-84
2022/12/10 04:46:55;;;;;;;48.33;23.00;;;1.30;99.90;;;;;;5007586;28;20448;-83
2022/12/10 04:50:15;;;;;;;;;;;;;;;;;;;;;
2022/12/10 04:53:23;;;;;;;43.60;22.88;;;1.30;99.90;;;;;;4975199;28;20125;-82
2022/12/10 04:56:55;;;;;;;;;;;;;;;;;;;;;
2022/12/10 05:00:05;;;;;;;50.50;24.30;;;1.30;99.90;;;;;;4932684;29;20092;-80
2022/12/10 05:10:31;;;;;;;52.83;26.23;;;1.20;99.90;;;;;;4943222;29;20054;-81
2022/12/10 05:13:05;;;;;;;53.83;25.33;;;1.20;99.90;;;;;;4883633;29;20038;-79
2022/12/10 05:15:30;;;;;;;44.70;24.05;;;1.20;99.90;;;;;;4965251;28;20094;-79
2022/12/10 05:18:06;;;;;;;49.72;24.20;;;1.20;99.90;;;;;;4974215;28;20042;-80
2022/12/10 05:20:50;;;;;;;44.35;24.13;;;1.20;99.90;;;;;;5009259;28;20049;-80
2022/12/10 05:27:41;;;;;;;49.13;24.27;;;1.10;99.90;;;;;;4982415;28;20511;-84
2022/12/10 05:37:25;;;;;;;46.40;22.35;;;1.10;99.90;;;;;;4994865;28;20502;-84
2022/12/10 05:39:50;;;;;;;45.30;22.65;;;1.10;99.90;;;;;;4975283;28;20117;-83
2022/12/10 05:42:16;;;;;;;42.92;23.42;;;1.10;99.90;;;;;;4959256;28;20132;-83
2022/12/10 05:48:29;;;;;;;41.97;22.65;;;1.10;99.90;;;;;;4976319;28;20365;-84
2022/12/10 05:51:51;;;;;;;;;;;;;;;;;;;;;
2022/12/10 05:54:21;;;;;;;47.60;24.38;;;1.10;99.90;;;;;;5022599;22;20089;-82
2022/12/10 05:56:46;;;;;;;46.33;23.63;;;1.10;99.90;;;;;;5023361;28;20037;-80
2022/12/10 05:59:12;;;;;;;46.05;23.70;;;1.00;99.90;;;;;;5033286;28;20022;-80
2022/12/10 06:01:37;;;;;;;50.65;26.40;;;1.00;99.90;;;;;;5032392;28;20021;-80
2022/12/10 06:04:04;;;;;;;47.45;24.48;;;1.00;99.90;;;;;;5030923;28;20029;-81
2022/12/10 06:06:35;;;;;;;47.33;24.27;;;1.00;99.90;;;;;;5013948;28;20011;-81
2022/12/10 06:09:02;;;;;;;48.58;24.38;;;1.00;99.90;;;;;;5014576;28;20063;-80
2022/12/10 06:11:29;;;;;;;50.70;25.42;;;1.00;99.90;;;;;;5013879;28;20023;-81
2022/12/10 06:13:56;;;;;;;50.95;26.08;;;1.00;99.90;;;;;;5013254;28;20034;-82
2022/12/10 06:16:22;;;;;;;49.15;25.83;;;1.00;99.90;;;;;;5013618;28;20053;-81
2022/12/10 06:18:48;;;;;;;46.60;24.75;;;0.90;99.90;;;;;;5014358;28;20030;-81
2022/12/10 06:21:15;;;;;;;45.75;23.60;;;1.00;99.90;;;;;;5013663;28;20027;-81
2022/12/10 06:23:41;;;;;;;45.60;25.23;;;0.90;99.90;;;;;;5021199;28;20037;-81
2022/12/10 06:26:10;;;;;;;47.50;25.48;;;1.00;99.90;;;;;;5022243;28;20095;-81
2022/12/10 06:28:36;;;;;;;47.08;25.45;;;1.00;99.90;;;;;;5015727;28;20042;-82
2022/12/10 06:31:02;;;;;;;51.53;24.75;;;0.90;99.90;;;;;;5016160;28;20038;-81
2022/12/10 06:33:28;;;;;;;52.53;26.15;;;0.90;99.90;;;;;;5017586;28;20047;-81
2022/12/10 06:35:54;;;;;;;55.17;27.10;;;1.00;99.90;;;;;;5016194;28;20019;-81
2022/12/10 06:38:20;;;;;;;46.45;25.52;;;1.00;99.90;;;;;;5016660;28;20065;-82
2022/12/10 06:40:45;;;;;;;46.85;25.10;;;1.00;99.90;;;;;;5015286;28;20106;-81
2022/12/10 06:43:11;;;;;;;46.85;25.33;;;1.00;99.90;;;;;;5014199;28;20031;-81
2022/12/10 06:45:42;;;;;;;40.22;22.58;;;1.00;99.90;;;;;;5017283;28;20034;-81
2022/12/10 06:48:08;;;;;;;43.97;23.80;;;1.00;99.90;;;;;;5014599;28;20022;-82
2022/12/10 06:50:35;;;;;;;42.47;22.77;;;1.00;99.90;;;;;;5015006;28;20114;-82
2022/12/10 06:53:01;;;;;;;42.25;23.35;;;1.00;99.90;;;;;;5016036;28;20026;-83
2022/12/10 06:55:27;;;;;;;41.13;23.73;;;1.00;99.90;;;;;;5025333;28;20029;-82
2022/12/10 06:57:53;;;;;;;44.40;24.42;;;1.00;99.90;;;;;;5012714;28;20042;-82
2022/12/10 07:00:20;;;;;;;45.67;24.15;;;1.00;99.90;;;;;;5015697;28;20038;-82
2022/12/10 07:02:47;;;;;;;44.40;24.30;;;0.90;99.90;;;;;;5016649;28;20030;-81
2022/12/10 07:05:13;;;;;;;43.10;23.67;;;1.00;99.90;;;;;;5016632;28;20061;-80
2022/12/10 07:07:38;;;;;;;43.38;23.33;;;0.90;99.90;;;;;;5015154;28;20038;-81
2022/12/10 07:10:05;;;;;;;42.72;22.33;;;0.90;99.90;;;;;;5014691;28;20049;-81
2022/12/10 07:12:31;;;;;;;39.50;21.85;;;1.00;99.90;;;;;;5030918;28;20048;-81
2022/12/10 07:14:56;;;;;;;44.55;22.13;;;1.10;99.90;;;;;;5014675;28;20030;-81
2022/12/10 07:17:22;;;;;;;40.45;22.38;;;1.20;99.90;;;;;;5015510;28;20046;-81
2022/12/10 07:19:47;;;;;;;41.58;22.15;;;1.20;99.90;;;;;;5016188;28;20122;-81
2022/12/10 07:22:13;;;;;;;42.00;23.25;;;1.20;99.90;;;;;;5015979;28;20046;-81
2022/12/10 07:24:39;;;;;;;41.92;22.75;;;1.20;99.90;;;;;;5017080;28;20037;-82
2022/12/10 07:27:06;;;;;;;46.20;24.65;;;1.20;99.90;;;;;;5019287;28;20264;-82
2022/12/10 07:29:38;;;;;;;38.03;21.35;;;1.20;99.90;;;;;;5013199;28;20026;-82
2022/12/10 07:32:04;;;;;;;39.33;21.55;;;1.30;99.90;;;;;;5011297;28;20070;-83
2022/12/10 07:34:29;;;;;;;35.17;19.67;;;1.30;99.90;;;;;;5012499;28;20033;-80
2022/12/10 07:36:55;;;;;;;40.92;21.55;;;1.40;99.90;;;;;;5015051;28;20130;-81
2022/12/10 07:39:21;;;;;;;37.55;19.90;;;1.40;99.90;;;;;;5012514;28;20030;-82
2022/12/10 07:41:52;;;;;;;38.50;20.38;;;1.40;99.90;;;;;;5014529;28;20046;-81
2022/12/10 07:44:20;;;;;;;34.47;18.67;;;1.40;99.90;;;;;;4997593;28;20038;-82
2022/12/10 07:46:47;;;;;;;35.67;20.95;;;1.50;99.90;;;;;;4982744;28;20412;-82
2022/12/10 07:49:13;;;;;;;36.20;19.38;;;1.50;99.90;;;;;;4991753;28;20023;-81
2022/12/10 07:51:42;;;;;;;34.50;19.40;;;1.40;99.90;;;;;;4985168;28;20033;-82
2022/12/10 07:54:08;;;;;;;34.30;19.88;;;1.40;99.90;;;;;;5003865;28;20036;-83
2022/12/10 07:56:33;;;;;;;35.55;20.65;;;1.40;99.90;;;;;;5011441;28;20031;-85
2022/12/10 07:58:59;;;;;;;36.75;20.52;;;1.30;99.90;;;;;;5005716;28;20468;-82
2022/12/10 08:01:26;;;;;;;34.42;19.55;;;1.30;99.90;;;;;;5001714;28;20126;-83
2022/12/10 08:03:56;;;;;;;34.40;19.23;;;1.30;99.90;;;;;;5004811;28;20057;-81
2022/12/10 08:06:22;;;;;;;38.47;21.75;;;1.30;99.90;;;;;;5002359;28;20094;-82
2022/12/10 08:08:49;;;;;;;34.63;20.05;;;1.20;99.90;;;;;;5002056;28;20029;-84
2022/12/10 08:11:16;;;;;;;34.00;19.23;;;1.30;99.90;;;;;;5002313;28;20042;-82
2022/12/10 08:13:42;;;;;;;40.47;19.88;;;1.30;99.90;;;;;;5004244;28;20046;-82
2022/12/10 08:16:22;;;;;;;30.77;18.77;;;1.30;99.90;;;;;;5002033;28;20044;-83
2022/12/10 08:18:48;;;;;;;40.70;20.90;;;1.30;99.90;;;;;;5001943;28;20076;-82
2022/12/10 08:21:16;;;;;;;34.10;19.95;;;1.30;99.90;;;;;;5002687;28;20026;-82
2022/12/10 08:23:43;;;;;;;35.38;20.88;;;1.30;99.90;;;;;;5010429;28;20022;-82
2022/12/10 08:26:12;;;;;;;33.08;18.83;;;1.30;99.90;;;;;;5011183;28;20133;-84
2022/12/10 08:28:38;;;;;;;37.92;20.70;;;1.40;99.90;;;;;;5022491;28;20006;-82
2022/12/10 08:31:04;;;;;;;34.55;18.58;;;1.30;99.90;;;;;;5021566;28;20026;-82
2022/12/10 08:33:33;;;;;;;36.75;20.25;;;1.30;99.90;;;;;;5020823;28;20026;-81
2022/12/10 08:35:59;;;;;;;37.88;20.55;;;1.30;99.90;;;;;;5013208;28;20480;-81
2022/12/10 08:38:25;;;;;;;37.83;20.88;;;1.30;99.90;;;;;;5000996;28;20074;-81
2022/12/10 08:40:51;;;;;;;39.90;20.92;;;1.20;99.90;;;;;;5002541;28;20034;-82
2022/12/10 08:43:16;;;;;;;36.30;20.38;;;1.30;99.90;;;;;;5000938;28;20057;-82
2022/12/10 08:45:42;;;;;;;37.85;21.73;;;1.30;99.90;;;;;;5003137;28;20052;-79
2022/12/10 08:48:08;;;;;;;42.47;21.65;;;1.30;99.90;;;;;;5000111;28;20088;-83
2022/12/10 08:50:33;;;;;;;42.00;21.50;;;1.30;99.90;;;;;;5001804;28;20372;-83
2022/12/10 08:53:00;;;;;;;39.90;22.27;;;1.40;99.90;;;;;;5001691;28;20419;-83
2022/12/10 08:55:25;;;;;;;35.92;20.65;;;1.40;99.90;;;;;;5010722;28;20034;-83
2022/12/10 08:57:51;;;;;;;40.42;22.50;;;1.40;99.90;;;;;;5001018;28;20122;-83
2022/12/10 09:00:18;;;;;;;40.58;21.92;;;1.40;99.90;;;;;;5003225;28;20019;-83
2022/12/10 09:02:44;;;;;;;43.20;22.05;;;1.40;99.90;;;;;;5003249;28;20029;-83
2022/12/10 09:05:10;;;;;;;42.65;23.58;;;1.40;99.90;;;;;;5004229;28;20025;-83
2022/12/10 09:07:36;;;;;;;41.28;22.63;;;1.40;99.90;;;;;;5003724;28;20030;-82
2022/12/10 09:10:02;;;;;;;45.40;22.38;;;1.50;99.90;;;;;;5004228;28;20030;-83
2022/12/10 09:12:27;;;;;;;40.90;22.55;;;1.50;99.90;;;;;;5004531;28;20014;-83
2022/12/10 09:14:53;;;;;;;43.85;22.17;;;1.40;99.90;;;;;;5003948;28;20028;-82
2022/12/10 09:17:19;;;;;;;42.08;22.33;;;1.40;99.90;;;;;;5002609;28;20475;-81
2022/12/10 09:19:44;;;;;;;44.80;22.63;;;1.40;99.90;;;;;;5002231;28;20108;-82
2022/12/10 09:22:10;;;;;;;46.20;23.98;;;1.40;99.90;;;;;;5001401;28;20026;-82
2022/12/10 09:24:35;;;;;;;39.33;23.10;;;1.40;99.90;;;;;;5016545;28;20002;-83
2022/12/10 09:27:02;;;;;;;38.47;20.40;;;1.40;99.90;;;;;;5005321;28;20488;-83
2022/12/10 09:29:28;;;;;;;40.95;21.63;;;1.50;99.90;;;;;;4999805;28;20073;-83
2022/12/10 09:31:54;;;;;;;40.17;21.58;;;1.60;99.90;;;;;;5000824;28;20057;-82
2022/12/10 09:34:21;;;;;;;46.55;23.48;;;1.60;99.90;;;;;;5002992;28;20034;-83
2022/12/10 09:36:47;;;;;;;46.45;24.92;;;1.60;99.90;;;;;;5000873;28;20049;-82
2022/12/10 09:39:13;;;;;;;42.80;23.98;;;1.60;99.90;;;;;;4982714;28;20059;-83
2022/12/10 09:42:13;;;;;;;45.42;23.15;;;1.50;99.90;;;;;;4980732;28;20388;-83
2022/12/10 09:44:51;;;;;;;40.60;21.95;;;1.50;99.90;;;;;;4979849;28;20463;-83
2022/12/10 09:47:17;;;;;;;44.85;23.65;;;1.50;99.90;;;;;;4981882;28;20026;-82
2022/12/10 09:50:07;;;;;;;46.97;23.70;;;1.50;99.90;;;;;;5000100;28;20034;-83
2022/12/10 09:52:39;;;;;;;42.63;22.85;;;1.50;99.90;;;;;;5001279;28;20077;-81
2022/12/10 09:55:12;;;;;;;45.60;24.88;;;1.50;99.90;;;;;;5012629;28;20069;-82
2022/12/10 09:57:48;;;;;;;46.00;24.45;;;1.50;99.90;;;;;;5030527;28;20021;-81
2022/12/10 10:00:32;;;;;;;47.08;24.52;;;1.50;99.90;;;;;;5020861;28;20111;-81
2022/12/10 10:02:59;;;;;;;52.45;24.60;;;1.50;99.90;;;;;;5019937;28;20363;-81
2022/12/10 10:05:26;;;;;;;47.40;24.02;;;1.50;99.90;;;;;;5020205;28;20048;-82
2022/12/10 10:07:56;;;;;;;46.20;24.08;;;1.50;99.90;;;;;;5019337;28;20026;-81
2022/12/10 10:10:29;;;;;;;52.42;24.35;;;1.40;99.90;;;;;;5017020;28;20197;-82
2022/12/10 10:13:14;;;;;;;43.28;22.40;;;1.40;99.90;;;;;;5007338;28;20450;-83
2022/12/10 10:15:43;;;;;;;45.78;24.13;;;1.50;99.90;;;;;;4998505;28;20026;-82
2022/12/10 10:18:16;;;;;;;49.00;23.63;;;1.40;99.90;;;;;;5007560;28;20038;-83
2022/12/10 10:20:42;;;;;;;47.55;25.02;;;1.50;99.90;;;;;;5005396;28;20061;-83
2022/12/10 10:23:12;;;;;;;45.97;24.08;;;1.50;99.90;;;;;;5007907;28;20030;-81
2022/12/10 10:25:38;;;;;;;46.92;23.63;;;1.50;99.90;;;;;;5019030;28;20018;-81
2022/12/10 10:28:04;;;;;;;47.97;23.75;;;1.50;99.90;;;;;;5027025;28;20018;-82
2022/12/10 10:30:29;;;;;;;48.60;26.15;;;1.50;99.90;;;;;;5013883;28;20038;-82
2022/12/10 10:33:07;;;;;;;43.72;22.58;;;1.50;99.90;;;;;;5008996;28;20039;-83
2022/12/10 10:35:41;;;;;;;43.47;22.38;;;1.50;99.90;;;;;;5006288;28;20061;-83
2022/12/10 10:38:16;;;;;;;46.67;23.38;;;1.50;99.90;;;;;;4990043;28;20034;-83
2022/12/10 10:40:45;;;;;;;49.28;24.13;;;1.60;99.90;;;;;;5007539;28;20072;-82
2022/12/10 10:43:27;;;;;;;48.25;25.25;;;1.50;99.90;;;;;;5009681;28;20034;-82
2022/12/10 10:46:01;;;;;;;44.05;23.73;;;1.50;99.90;;;;;;5013211;28;20037;-80
2022/12/10 10:48:28;;;;;;;45.63;22.27;;;1.50;99.90;;;;;;5018705;28;20041;-82
2022/12/10 10:51:04;;;;;;;44.58;22.40;;;1.50;99.90;;;;;;5016238;28;20050;-82
2022/12/10 10:53:44;;;;;;;49.60;24.95;;;1.50;99.90;;;;;;5019734;28;20049;-82
2022/12/10 10:56:33;;;;;;;45.42;23.63;;;1.60;99.90;;;;;;5034834;28;20018;-82
2022/12/10 10:59:13;;;;;;;48.50;23.80;;;1.50;99.90;;;;;;5034486;28;20041;-83
2022/12/10 11:01:54;;;;;;;46.35;22.30;;;1.50;99.90;;;;;;5017462;28;20041;-82
2022/12/10 11:04:35;;;;;;;49.65;23.48;;;1.50;99.90;;;;;;5006782;28;20038;-83
2022/12/10 11:07:03;;;;;;;49.17;24.73;;;1.50;99.90;;;;;;5007283;28;20101;-83
2022/12/10 11:09:31;;;;;;;49.00;23.67;;;1.40;99.90;;;;;;5006118;28;20030;-83
2022/12/10 11:12:06;;;;;;;46.47;24.27;;;1.50;99.90;;;;;;5008273;28;20084;-83
2022/12/10 11:14:38;;;;;;;41.17;23.00;;;1.50;99.90;;;;;;5004430;28;20038;-82
2022/12/10 11:17:09;;;;;;;49.25;23.70;;;1.40;99.90;;;;;;5003751;28;20053;-83
2022/12/10 11:19:41;;;;;;;53.92;25.52;;;1.40;99.90;;;;;;5006090;28;20038;-82
2022/12/10 11:22:27;;;;;;;46.37;22.90;;;1.40;99.90;;;;;;5007737;28;20113;-83
2022/12/10 11:24:54;;;;;;;46.17;23.38;;;1.40;99.90;;;;;;5012656;28;20445;-82
2022/12/10 11:27:47;;;;;;;47.88;24.50;;;1.50;99.90;;;;;;5003548;28;20130;-83
2022/12/10 11:30:21;;;;;;;45.75;23.23;;;1.60;99.90;;;;;;5002878;28;20537;-83
2022/12/10 11:33:06;;;;;;;44.60;23.25;;;1.60;99.90;;;;;;5002568;28;20026;-83
2022/12/10 11:35:34;;;;;;;45.38;24.45;;;1.60;99.90;;;;;;5005040;28;20082;-83
2022/12/10 11:38:25;;;;;;;44.60;23.60;;;1.60;99.90;;;;;;5002311;28;20027;-83
2022/12/10 11:41:05;;;;;;;44.35;23.00;;;1.60;99.90;;;;;;5002074;28;20065;-82
2022/12/10 11:43:59;;;;;;;49.10;23.58;;;1.60;99.90;;;;;;5003962;28;20491;-84
2022/12/10 11:46:54;;;;;;;48.05;23.85;;;1.70;99.90;;;;;;5002424;28;20049;-82
2022/12/10 11:49:42;;;;;;;44.78;23.38;;;1.70;99.90;;;;;;5002166;28;20030;-84
2022/12/10 11:52:20;;;;;;;47.15;23.45;;;1.70;99.90;;;;;;5002403;28;20034;-82
2022/12/10 11:54:55;;;;;;;41.72;23.65;;;1.70;99.90;;;;;;5013530;28;20364;-82
2022/12/10 11:57:31;;;;;;;47.17;22.83;;;1.80;99.90;;;;;;5019890;28;20022;-83
2022/12/10 12:00:02;;;;;;;39.65;22.13;;;1.80;99.90;;;;;;5022873;28;20022;-82
2022/12/10 12:02:46;;;;;;;44.00;23.30;;;1.80;99.90;;;;;;5019111;28;20038;-82
2022/12/10 12:05:30;;;;;;;42.70;23.33;;;1.80;99.90;;;;;;5001788;28;20070;-82
2022/12/10 12:08:21;;;;;;;40.97;22.13;;;1.80;99.90;;;;;;5002545;28;20109;-83
2022/12/10 12:11:21;;;;;;;43.20;22.67;;;1.90;99.90;;;;;;4976479;28;20038;-83
2022/12/10 12:13:59;;;;;;;42.05;22.40;;;1.80;99.90;;;;;;5003834;28;20034;-83
2022/12/10 12:16:37;;;;;;;42.63;22.38;;;1.80;99.90;;;;;;5001636;28;20118;-83
2022/12/10 12:19:32;;;;;;;42.13;22.52;;;1.70;99.90;;;;;;5002509;28;20471;-82
2022/12/10 12:22:13;;;;;;;45.53;22.60;;;1.70;99.90;;;;;;5002682;28;20046;-81
2022/12/10 12:24:41;;;;;;;42.53;22.73;;;1.60;99.90;;;;;;5015071;28;20052;-82
2022/12/10 12:27:23;;;;;;;43.35;23.55;;;1.50;99.90;;;;;;5005357;28;20029;-83
2022/12/10 12:29:55;;;;;;;45.65;23.52;;;1.50;99.90;;;;;;5002930;28;20026;-83
2022/12/10 12:32:25;;;;;;;43.30;22.55;;;1.50;99.90;;;;;;5002962;28;20145;-84
2022/12/10 12:35:12;;;;;;;41.05;21.02;;;1.50;99.90;;;;;;4997988;28;20038;-83
2022/12/10 12:37:48;;;;;;;45.17;22.90;;;1.40;99.90;;;;;;5003558;28;20038;-84
2022/12/10 12:40:33;;;;;;;44.15;22.63;;;1.40;99.90;;;;;;5003344;28;20065;-84
2022/12/10 12:43:07;;;;;;;47.08;23.00;;;1.40;99.90;;;;;;5001831;28;20023;-83
2022/12/10 12:45:40;;;;;;;44.38;22.95;;;1.30;99.90;;;;;;5002713;28;20029;-83
2022/12/10 12:48:14;;;;;;;43.88;22.73;;;1.30;99.90;;;;;;5001526;28;20049;-83
2022/12/10 12:50:45;;;;;;;45.75;22.48;;;1.30;99.90;;;;;;5003223;28;20039;-82
2022/12/10 12:53:23;;;;;;;46.63;23.70;;;1.40;99.90;;;;;;5006120;28;20086;-81
2022/12/10 12:56:42;;;;;;;46.97;23.92;;;1.30;99.90;;;;;;5012722;28;20037;-80
2022/12/10 12:59:10;;;;;;;49.40;24.70;;;1.30;99.90;;;;;;5035805;28;20121;-80
2022/12/10 13:01:43;;;;;;;47.05;23.40;;;1.30;99.90;;;;;;5024823;28;20030;-83
2022/12/10 13:04:10;;;;;;;52.00;25.17;;;1.30;99.90;;;;;;5014287;28;20034;-81
2022/12/10 13:06:44;;;;;;;48.92;22.77;;;1.30;99.90;;;;;;5006679;28;20034;-82
2022/12/10 13:09:12;;;;;;;45.33;22.83;;;1.30;99.90;;;;;;5001894;28;20030;-83
2022/12/10 13:11:41;;;;;;;48.50;24.38;;;1.40;99.90;;;;;;5001500;28;20030;-82
2022/12/10 13:14:07;;;;;;;41.55;23.15;;;1.40;99.90;;;;;;5001375;28;20117;-79
2022/12/10 13:16:48;;;;;;;45.88;22.08;;;1.30;99.90;;;;;;4983616;28;20428;-81
2022/12/10 13:19:31;;;;;;;47.35;23.90;;;1.30;99.90;;;;;;4980934;28;20027;-82
2022/12/10 13:21:59;;;;;;;48.88;25.70;;;1.30;99.90;;;;;;4987992;28;20103;-82
2022/12/10 13:24:37;;;;;;;50.33;24.55;;;1.30;99.90;;;;;;5013415;28;20036;-82
2022/12/10 13:27:15;;;;;;;41.75;22.65;;;1.30;99.90;;;;;;5006142;28;20069;-81
2022/12/10 13:30:24;;;;;;;52.53;25.58;;;1.40;99.90;;;;;;5000168;28;20031;-82
2022/12/10 13:33:02;;;;;;;51.05;26.83;;;1.40;99.90;;;;;;5005969;28;20062;-82
2022/12/10 13:35:30;;;;;;;46.22;24.52;;;1.40;99.90;;;;;;5001344;28;20014;-82
2022/12/10 13:38:18;;;;;;;49.40;24.77;;;1.40;99.90;;;;;;5000704;28;20404;-82
2022/12/10 13:47:04;;;;;;;44.53;23.42;;;1.50;99.90;;;;;;5000609;28;20033;-81
2022/12/10 13:49:47;;;;;;;41.63;21.98;;;1.50;99.90;;;;;;5000681;28;20050;-81
2022/12/10 13:52:19;;;;;;;45.67;24.67;;;1.40;99.90;;;;;;5003235;28;20042;-80
2022/12/10 13:55:01;;;;;;;45.75;24.48;;;1.40;99.90;;;;;;5014880;28;20042;-82
2022/12/10 13:57:47;;;;;;;45.90;23.55;;;1.40;99.90;;;;;;5002360;28;20053;-81
2022/12/10 14:00:24;;;;;;;48.47;25.30;;;1.40;99.90;;;;;;5000873;28;20041;-81
2022/12/10 14:03:21;;;;;;;42.92;23.08;;;1.30;99.90;;;;;;5001569;28;20491;-83
2022/12/10 14:05:55;;;;;;;46.88;23.42;;;1.30;99.90;;;;;;5001840;28;20077;-84
2022/12/10 14:08:29;;;;;;;45.38;24.48;;;1.30;99.90;;;;;;5001646;28;20034;-81
2022/12/10 14:10:57;;;;;;;48.97;24.92;;;1.30;99.90;;;;;;5001008;28;20050;-82
2022/12/10 14:13:33;;;;;;;54.17;26.10;;;1.40;99.90;;;;;;4999717;28;20095;-84
2022/12/10 14:16:01;;;;;;;47.65;25.33;;;1.40;99.90;;;;;;5002163;28;20065;-83
2022/12/10 14:18:30;;;;;;;44.00;24.20;;;1.30;99.90;;;;;;5000701;28;20053;-82